Time;durP1;ratioP1;P1;durP2;ratioP2;P2;SDS_P1;SDS_P2;PMS_P1;PMS_P2;Temp;Humidity;BMP_temperature;BMP_pressure;BME280_temperature;BME280_humidity;BME280_pressure;Samples;Min_cycle;Max_cycle;Signal;HPM_P1;HPM_P2
2022/04/08 00:02:18;;;;;;;10.93;1.27;;;;;;;;;;5080692;28;20135;-75
2022/04/08 00:04:45;;;;;;;9.50;1.50;;;;;;;;;;5066652;28;20103;-75
2022/04/08 00:07:11;;;;;;;11.68;2.65;;;;;;;;;;5066051;28;20048;-75
2022/04/08 00:09:37;;;;;;;17.83;2.03;;;;;;;;;;5068038;28;20064;-75
2022/04/08 00:12:04;;;;;;;11.00;1.58;;;;;;;;;;5068315;28;20056;-75
2022/04/08 00:14:32;;;;;;;7.03;1.58;;;;;;;;;;5068284;28;20057;-75
2022/04/08 00:16:58;;;;;;;8.80;1.67;;;;;;;;;;5068161;28;20079;-75
2022/04/08 00:19:27;;;;;;;15.50;1.90;;;;;;;;;;5086028;28;20075;-75
2022/04/08 00:21:53;;;;;;;15.35;2.70;;;;;;;;;;5064484;28;20148;-75
2022/04/08 00:24:20;;;;;;;14.63;1.83;;;;;;;;;;5067738;28;20965;-75
2022/04/08 00:26:46;;;;;;;8.07;1.90;;;;;;;;;;5064771;28;20155;-75
2022/04/08 00:29:13;;;;;;;15.20;2.05;;;;;;;;;;5084176;28;20056;-75
2022/04/08 00:31:39;;;;;;;14.27;2.30;;;;;;;;;;5055218;28;20131;-75
2022/04/08 00:34:06;;;;;;;17.20;1.88;;;;;;;;;;5075167;28;20061;-76
2022/04/08 00:36:32;;;;;;;16.15;1.75;;;;;;;;;;5074516;28;20096;-75
2022/04/08 00:38:59;;;;;;;11.25;1.92;;;;;;;;;;5086932;28;20056;-75
2022/04/08 00:41:25;;;;;;;14.10;1.73;;;;;;;;;;5084247;28;20057;-75
2022/04/08 00:43:52;;;;;;;14.38;2.50;;;;;;;;;;5071742;28;20137;-76
2022/04/08 00:46:18;;;;;;;21.27;2.38;;;;;;;;;;5072961;28;20547;-75
2022/04/08 00:48:44;;;;;;;10.23;1.95;;;;;;;;;;5084240;28;20548;-76
2022/04/08 00:51:12;;;;;;;12.23;2.28;;;;;;;;;;5070451;28;20085;-75
2022/04/08 00:53:39;;;;;;;11.20;2.45;;;;;;;;;;5068067;28;20099;-75
2022/04/08 00:56:06;;;;;;;18.20;2.05;;;;;;;;;;5065806;28;20080;-76
2022/04/08 00:58:34;;;;;;;11.35;2.22;;;;;;;;;;5085132;28;20083;-76
2022/04/08 01:01:01;;;;;;;13.65;1.65;;;;;;;;;;5079484;28;20059;-76
2022/04/08 01:03:27;;;;;;;15.80;3.17;;;;;;;;;;5074307;28;20059;-76
2022/04/08 01:05:54;;;;;;;12.73;1.70;;;;;;;;;;5053687;28;20052;-76
2022/04/08 01:08:20;;;;;;;14.98;2.08;;;;;;;;;;5090802;28;20155;-76
2022/04/08 01:10:48;;;;;;;14.15;2.00;;;;;;;;;;5087128;28;20091;-76
2022/04/08 01:13:14;;;;;;;17.33;2.33;;;;;;;;;;5071862;28;20052;-75
2022/04/08 01:15:41;;;;;;;12.32;1.85;;;;;;;;;;5074289;28;20529;-75
2022/04/08 01:18:08;;;;;;;14.40;2.55;;;;;;;;;;5066871;28;20156;-76
2022/04/08 01:20:34;;;;;;;15.15;2.03;;;;;;;;;;5080694;28;20085;-77
2022/04/08 01:23:01;;;;;;;13.90;2.85;;;;;;;;;;5074772;28;20177;-76
2022/04/08 01:25:27;;;;;;;10.40;1.90;;;;;;;;;;5074559;28;20164;-76
2022/04/08 01:27:54;;;;;;;15.57;1.73;;;;;;;;;;5073058;28;20060;-76
2022/04/08 01:30:20;;;;;;;16.25;1.98;;;;;;;;;;5089216;28;20521;-76
2022/04/08 01:32:46;;;;;;;15.25;1.67;;;;;;;;;;5065571;28;20084;-76
2022/04/08 01:35:13;;;;;;;11.43;2.00;;;;;;;;;;5070458;28;20613;-76
2022/04/08 01:37:39;;;;;;;16.80;2.22;;;;;;;;;;5048552;28;20056;-76
2022/04/08 01:40:06;;;;;;;13.35;2.08;;;;;;;;;;5083838;28;20163;-76
2022/04/08 01:42:32;;;;;;;14.55;2.35;;;;;;;;;;5070173;28;20083;-76
2022/04/08 01:44:59;;;;;;;10.40;2.17;;;;;;;;;;5086548;28;20506;-76
2022/04/08 01:47:25;;;;;;;14.77;2.38;;;;;;;;;;5081757;28;20087;-76
2022/04/08 01:49:51;;;;;;;13.77;1.98;;;;;;;;;;5075253;28;20045;-76
2022/04/08 01:52:18;;;;;;;11.48;1.92;;;;;;;;;;5089738;28;20552;-76
2022/04/08 01:54:44;;;;;;;17.27;2.50;;;;;;;;;;5074446;28;20140;-76
2022/04/08 01:57:10;;;;;;;16.30;2.42;;;;;;;;;;5077228;28;20050;-76
2022/04/08 01:59:37;;;;;;;17.95;2.45;;;;;;;;;;5088978;28;20144;-76
2022/04/08 02:02:03;;;;;;;16.35;2.17;;;;;;;;;;5075861;28;20134;-76
2022/04/08 02:04:30;;;;;;;14.93;1.80;;;;;;;;;;5078844;28;20053;-76
2022/04/08 02:06:56;;;;;;;14.02;2.25;;;;;;;;;;5039008;28;20060;-76
2022/04/08 02:09:22;;;;;;;15.07;2.50;;;;;;;;;;5056335;28;20520;-76
2022/04/08 02:11:49;;;;;;;22.30;2.88;;;;;;;;;;5083841;28;20148;-76
2022/04/08 02:14:16;;;;;;;19.08;2.88;;;;;;;;;;5089107;28;20132;-76
2022/04/08 02:16:42;;;;;;;7.43;1.60;;;;;;;;;;5070783;28;20140;-76
2022/04/08 02:19:08;;;;;;;14.48;2.10;;;;;;;;;;5068878;28;20525;-76
2022/04/08 02:21:35;;;;;;;16.80;2.80;;;;;;;;;;5083906;28;20049;-76
2022/04/08 02:24:03;;;;;;;17.33;2.55;;;;;;;;;;5072286;28;20164;-76
2022/04/08 02:26:29;;;;;;;12.40;1.88;;;;;;;;;;5082447;28;20557;-76
2022/04/08 02:28:56;;;;;;;15.13;2.35;;;;;;;;;;5087630;28;20057;-76
2022/04/08 02:31:22;;;;;;;14.50;2.40;;;;;;;;;;5060384;28;20044;-76
2022/04/08 02:33:49;;;;;;;13.48;2.30;;;;;;;;;;5084935;28;20056;-76
2022/04/08 02:36:15;;;;;;;11.65;1.95;;;;;;;;;;5087980;28;20052;-76
2022/04/08 02:38:41;;;;;;;24.58;1.95;;;;;;;;;;5087899;28;20052;-75
2022/04/08 02:41:07;;;;;;;12.25;2.00;;;;;;;;;;5067467;28;20148;-76
2022/04/08 02:43:34;;;;;;;9.98;1.77;;;;;;;;;;5078851;28;20048;-76
2022/04/08 02:46:01;;;;;;;23.42;2.65;;;;;;;;;;5073502;28;20148;-76
2022/04/08 02:48:27;;;;;;;8.55;1.58;;;;;;;;;;5069599;28;20140;-76
2022/04/08 02:50:53;;;;;;;14.48;1.80;;;;;;;;;;5085315;28;20051;-75
2022/04/08 02:53:20;;;;;;;17.00;1.50;;;;;;;;;;5082250;28;20057;-76
2022/04/08 02:55:46;;;;;;;12.73;2.08;;;;;;;;;;5070070;28;20670;-76
2022/04/08 02:58:12;;;;;;;12.02;1.40;;;;;;;;;;5089289;28;20052;-76
2022/04/08 03:00:40;;;;;;;8.20;1.77;;;;;;;;;;5076173;28;20525;-76
2022/04/08 03:03:06;;;;;;;11.13;1.50;;;;;;;;;;5074457;28;20063;-76
2022/04/08 03:05:33;;;;;;;7.38;1.17;;;;;;;;;;5081370;28;20056;-76
2022/04/08 03:07:59;;;;;;;11.95;1.55;;;;;;;;;;5082141;28;20102;-76
2022/04/08 03:10:25;;;;;;;12.15;1.90;;;;;;;;;;5066934;28;20528;-76
2022/04/08 03:12:52;;;;;;;10.77;1.50;;;;;;;;;;5072928;28;20060;-76
2022/04/08 03:15:19;;;;;;;10.75;1.50;;;;;;;;;;5079381;28;20057;-76
2022/04/08 03:17:46;;;;;;;7.45;1.60;;;;;;;;;;5080208;28;20049;-76
2022/04/08 03:20:12;;;;;;;7.13;1.83;;;;;;;;;;5073256;28;20059;-76
2022/04/08 03:22:39;;;;;;;9.82;1.50;;;;;;;;;;5087940;28;20055;-76
2022/04/08 03:25:05;;;;;;;7.45;1.58;;;;;;;;;;5081311;28;20827;-76
2022/04/08 03:27:32;;;;;;;5.68;1.60;;;;;;;;;;5079807;28;20084;-76
2022/04/08 03:29:58;;;;;;;12.30;2.85;;;;;;;;;;5081821;28;20081;-76
2022/04/08 03:32:24;;;;;;;8.85;1.80;;;;;;;;;;5084087;28;20084;-74
2022/04/08 03:34:57;;;;;;;7.50;1.73;;;;;;;;;;5082967;28;20582;-75
2022/04/08 03:37:24;;;;;;;13.43;2.30;;;;;;;;;;5076830;28;20138;-75
2022/04/08 03:39:51;;;;;;;6.85;1.45;;;;;;;;;;5086752;28;20058;-74
2022/04/08 03:42:17;;;;;;;12.05;1.92;;;;;;;;;;5080034;28;20136;-74
2022/04/08 03:44:43;;;;;;;17.52;2.20;;;;;;;;;;5082458;28;20202;-74
2022/04/08 03:47:10;;;;;;;10.10;1.83;;;;;;;;;;5078133;28;20053;-74
2022/04/08 03:49:37;;;;;;;14.15;1.80;;;;;;;;;;5087637;28;20557;-75
2022/04/08 03:52:04;;;;;;;17.23;2.45;;;;;;;;;;5074242;28;20057;-74
2022/04/08 03:54:30;;;;;;;12.07;2.08;;;;;;;;;;5077976;28;20144;-74
2022/04/08 03:56:57;;;;;;;15.90;2.42;;;;;;;;;;5080549;28;20498;-74
2022/04/08 03:59:24;;;;;;;13.05;2.45;;;;;;;;;;5071824;28;20499;-75
2022/04/08 04:01:51;;;;;;;19.50;1.80;;;;;;;;;;5075948;28;20072;-74
2022/04/08 04:04:18;;;;;;;10.93;2.17;;;;;;;;;;5083108;28;20060;-75
2022/04/08 04:06:44;;;;;;;12.35;2.15;;;;;;;;;;5081844;28;20060;-75
2022/04/08 04:09:11;;;;;;;13.45;2.08;;;;;;;;;;5081490;28;20056;-74
2022/04/08 04:11:37;;;;;;;10.00;1.80;;;;;;;;;;5073896;28;20131;-75
2022/04/08 04:14:03;;;;;;;10.32;2.30;;;;;;;;;;5064667;28;20114;-75
2022/04/08 04:16:30;;;;;;;7.72;2.10;;;;;;;;;;5073247;28;20051;-74
2022/04/08 04:18:56;;;;;;;13.18;2.40;;;;;;;;;;5068769;28;20107;-74
2022/04/08 04:21:22;;;;;;;11.48;2.40;;;;;;;;;;5073629;28;20063;-74
2022/04/08 04:23:49;;;;;;;11.98;2.33;;;;;;;;;;5083620;28;20247;-75
2022/04/08 04:26:21;;;;;;;13.73;2.53;;;;;;;;;;5087038;28;20059;-75
2022/04/08 04:28:47;;;;;;;12.43;2.20;;;;;;;;;;5058662;28;20136;-75
2022/04/08 04:31:14;;;;;;;14.68;2.38;;;;;;;;;;5070366;28;20612;-75
2022/04/08 04:33:40;;;;;;;12.60;2.40;;;;;;;;;;5087116;28;20084;-75
2022/04/08 04:36:06;;;;;;;11.65;1.92;;;;;;;;;;5076846;28;20045;-75
2022/04/08 04:38:33;;;;;;;14.75;2.70;;;;;;;;;;5071964;28;20081;-75
2022/04/08 04:40:59;;;;;;;12.25;2.00;;;;;;;;;;5070640;28;20179;-75
2022/04/08 04:43:25;;;;;;;11.43;2.13;;;;;;;;;;5071094;28;20063;-75
2022/04/08 04:45:52;;;;;;;8.65;2.30;;;;;;;;;;5071540;28;20173;-74
2022/04/08 04:48:18;;;;;;;6.35;2.22;;;;;;;;;;5070386;28;20053;-72
2022/04/08 04:50:46;;;;;;;9.43;1.98;;;;;;;;;;5070849;28;20057;-71
2022/04/08 04:53:13;;;;;;;16.92;3.05;;;;;;;;;;5058172;28;20180;-72
2022/04/08 04:55:39;;;;;;;17.27;2.75;;;;;;;;;;5071169;28;20049;-72
2022/04/08 04:58:05;;;;;;;6.57;2.00;;;;;;;;;;5071429;28;20144;-72
2022/04/08 05:00:32;;;;;;;13.80;2.50;;;;;;;;;;5082310;28;20044;-72
2022/04/08 05:02:58;;;;;;;12.35;2.20;;;;;;;;;;5070930;28;20491;-71
2022/04/08 05:05:25;;;;;;;11.35;2.40;;;;;;;;;;5071757;28;20145;-73
2022/04/08 05:07:51;;;;;;;9.57;2.65;;;;;;;;;;5073025;28;20075;-74
2022/04/08 05:10:17;;;;;;;9.05;2.42;;;;;;;;;;5071162;28;20513;-74
2022/04/08 05:12:44;;;;;;;10.50;2.15;;;;;;;;;;5069851;28;20598;-74
2022/04/08 05:15:11;;;;;;;10.77;2.13;;;;;;;;;;5069876;28;20045;-74
2022/04/08 05:17:38;;;;;;;8.30;2.50;;;;;;;;;;5081341;28;20091;-74
2022/04/08 05:20:05;;;;;;;8.88;2.28;;;;;;;;;;5090089;28;20052;-74
2022/04/08 05:22:32;;;;;;;9.40;1.95;;;;;;;;;;5088783;28;20091;-72
2022/04/08 05:24:59;;;;;;;11.40;2.42;;;;;;;;;;5066742;28;20085;-73
2022/04/08 05:27:26;;;;;;;13.25;2.42;;;;;;;;;;5074113;28;20081;-73
2022/04/08 05:30:02;;;;;;;9.52;2.55;;;;;;;;;;5072439;28;20057;-71
2022/04/08 05:32:29;;;;;;;9.20;1.90;;;;;;;;;;5085515;28;20052;-73
2022/04/08 05:34:55;;;;;;;17.85;2.42;;;;;;;;;;5080129;28;20438;-73
2022/04/08 05:37:25;;;;;;;15.73;2.35;;;;;;;;;;5068014;28;20056;-74
2022/04/08 05:39:54;;;;;;;13.32;2.67;;;;;;;;;;5083272;28;20143;-74
2022/04/08 05:42:21;;;;;;;9.90;2.20;;;;;;;;;;5086823;28;20144;-74
2022/04/08 05:44:47;;;;;;;8.55;2.00;;;;;;;;;;5088904;28;20143;-74
2022/04/08 05:47:14;;;;;;;9.15;1.75;;;;;;;;;;5077817;28;20146;-74
2022/04/08 05:49:40;;;;;;;15.52;1.80;;;;;;;;;;5069062;28;20532;-74
2022/04/08 05:52:06;;;;;;;13.10;2.40;;;;;;;;;;5078595;28;20176;-74
2022/04/08 05:54:33;;;;;;;15.15;2.35;;;;;;;;;;5086366;28;20153;-75
2022/04/08 05:57:01;;;;;;;14.52;2.97;;;;;;;;;;5088039;28;20060;-74
2022/04/08 05:59:29;;;;;;;10.18;2.47;;;;;;;;;;5088901;28;20495;-74
2022/04/08 06:01:55;;;;;;;8.75;2.03;;;;;;;;;;5089570;28;20587;-74
2022/04/08 06:04:22;;;;;;;7.78;2.10;;;;;;;;;;5087456;28;20079;-74
2022/04/08 06:06:50;;;;;;;11.75;2.67;;;;;;;;;;5090111;28;20068;-74
2022/04/08 06:09:16;;;;;;;20.02;2.67;;;;;;;;;;5089881;28;20083;-74
2022/04/08 06:11:44;;;;;;;12.63;2.78;;;;;;;;;;5084865;28;20107;-71
2022/04/08 06:14:10;;;;;;;16.47;2.90;;;;;;;;;;5085055;28;20571;-73
2022/04/08 06:16:37;;;;;;;12.65;2.45;;;;;;;;;;5073095;28;20374;-72
2022/04/08 06:19:03;;;;;;;11.65;2.05;;;;;;;;;;5069124;28;20057;-75
2022/04/08 06:21:29;;;;;;;7.25;2.28;;;;;;;;;;5089560;28;20625;-72
2022/04/08 06:23:56;;;;;;;10.35;2.45;;;;;;;;;;5078488;28;20053;-75
2022/04/08 06:26:27;;;;;;;7.75;2.53;;;;;;;;;;5068892;28;20585;-75
2022/04/08 06:28:54;;;;;;;8.35;2.28;;;;;;;;;;5068107;28;20049;-75
2022/04/08 06:31:20;;;;;;;14.40;2.15;;;;;;;;;;5067037;28;20053;-75
2022/04/08 06:33:46;;;;;;;14.20;2.70;;;;;;;;;;5067270;28;20056;-75
2022/04/08 06:36:13;;;;;;;5.82;2.08;;;;;;;;;;5067773;28;20144;-75
2022/04/08 06:38:39;;;;;;;7.22;2.17;;;;;;;;;;5067420;28;20525;-75
2022/04/08 06:41:05;;;;;;;11.05;2.63;;;;;;;;;;5069207;28;20860;-76
2022/04/08 06:43:32;;;;;;;13.55;2.47;;;;;;;;;;5072549;28;20072;-74
2022/04/08 06:45:58;;;;;;;11.02;2.17;;;;;;;;;;5075345;28;20047;-74
2022/04/08 06:48:25;;;;;;;47.53;3.97;;;;;;;;;;5085420;28;20061;-75
2022/04/08 06:50:51;;;;;;;10.60;2.42;;;;;;;;;;5078338;28;20063;-75
2022/04/08 06:53:17;;;;;;;13.05;2.42;;;;;;;;;;5073983;28;20526;-75
2022/04/08 06:55:43;;;;;;;10.98;2.55;;;;;;;;;;5070082;28;20057;-75
2022/04/08 06:58:10;;;;;;;11.70;2.55;;;;;;;;;;5067051;28;20140;-75
2022/04/08 07:00:37;;;;;;;7.60;1.70;;;;;;;;;;5068023;28;20199;-75
2022/04/08 07:03:03;;;;;;;10.80;2.38;;;;;;;;;;5068989;28;20702;-75
2022/04/08 07:05:30;;;;;;;13.20;1.63;;;;;;;;;;5062097;28;20048;-74
2022/04/08 07:07:57;;;;;;;9.38;2.08;;;;;;;;;;5068302;28;20529;-75
2022/04/08 07:10:23;;;;;;;9.52;2.38;;;;;;;;;;5068799;28;20059;-75
2022/04/08 07:12:50;;;;;;;9.95;2.08;;;;;;;;;;5067783;28;20059;-75
2022/04/08 07:15:16;;;;;;;6.80;1.58;;;;;;;;;;5067676;28;20144;-74
2022/04/08 07:17:43;;;;;;;17.05;1.80;;;;;;;;;;5067726;28;20053;-75
2022/04/08 07:20:15;;;;;;;14.25;2.97;;;;;;;;;;5068122;28;20057;-75
2022/04/08 07:22:42;;;;;;;11.18;2.17;;;;;;;;;;5065204;28;20534;-75
2022/04/08 07:25:09;;;;;;;7.60;1.77;;;;;;;;;;5069068;28;20049;-74
2022/04/08 07:27:42;;;;;;;9.77;1.80;;;;;;;;;;5068651;28;20873;-74
2022/04/08 07:30:09;;;;;;;15.68;2.28;;;;;;;;;;5068199;28;20053;-74
2022/04/08 07:32:35;;;;;;;10.23;1.67;;;;;;;;;;5068493;28;20081;-74
2022/04/08 07:35:01;;;;;;;5.90;2.05;;;;;;;;;;5067039;28;20426;-75
2022/04/08 07:37:29;;;;;;;9.43;1.58;;;;;;;;;;5067115;28;20155;-74
2022/04/08 07:39:55;;;;;;;10.13;2.10;;;;;;;;;;5067455;28;20180;-74
2022/04/08 07:42:22;;;;;;;15.13;2.53;;;;;;;;;;5066945;28;20053;-73
2022/04/08 07:44:48;;;;;;;12.63;2.17;;;;;;;;;;5062962;28;20117;-71
2022/04/08 07:47:15;;;;;;;8.65;1.90;;;;;;;;;;5067435;28;20136;-70
2022/04/08 07:49:42;;;;;;;18.95;2.30;;;;;;;;;;5068027;28;20566;-70
2022/04/08 07:52:08;;;;;;;12.55;2.53;;;;;;;;;;5049596;28;20546;-70
2022/04/08 07:54:34;;;;;;;9.18;2.17;;;;;;;;;;5066982;28;20053;-70
2022/04/08 07:57:01;;;;;;;9.40;1.95;;;;;;;;;;5057782;28;20188;-70
2022/04/08 07:59:27;;;;;;;9.98;2.10;;;;;;;;;;5067649;28;20144;-70
2022/04/08 08:01:53;;;;;;;12.13;1.88;;;;;;;;;;5068180;28;20067;-70
2022/04/08 08:04:21;;;;;;;7.90;2.28;;;;;;;;;;5067742;28;20045;-70
2022/04/08 08:06:48;;;;;;;9.00;2.33;;;;;;;;;;5068556;28;20059;-70
2022/04/08 08:09:14;;;;;;;12.80;2.30;;;;;;;;;;5067908;28;20480;-71
2022/04/08 08:11:40;;;;;;;16.92;2.22;;;;;;;;;;5066509;28;20135;-70
2022/04/08 08:14:07;;;;;;;11.05;2.10;;;;;;;;;;5067500;28;20056;-70
2022/04/08 08:16:34;;;;;;;9.05;2.22;;;;;;;;;;5067525;28;20147;-70
2022/04/08 08:19:01;;;;;;;21.08;2.58;;;;;;;;;;5067971;28;20053;-70
2022/04/08 08:21:27;;;;;;;9.80;1.92;;;;;;;;;;5068145;28;20048;-66
2022/04/08 08:23:54;;;;;;;14.48;2.40;;;;;;;;;;5067257;28;20092;-70
2022/04/08 08:26:20;;;;;;;13.00;2.80;;;;;;;;;;5067055;28;20136;-70
2022/04/08 08:28:46;;;;;;;14.38;2.58;;;;;;;;;;5067076;28;20574;-70
2022/04/08 08:31:15;;;;;;;10.05;1.85;;;;;;;;;;5067414;28;20153;-70
2022/04/08 08:33:43;;;;;;;8.98;1.77;;;;;;;;;;5067266;28;20049;-70
2022/04/08 08:36:09;;;;;;;14.38;2.53;;;;;;;;;;5067556;28;20053;-70
2022/04/08 08:38:36;;;;;;;9.73;1.95;;;;;;;;;;5067845;28;20053;-70
2022/04/08 08:41:03;;;;;;;19.92;2.13;;;;;;;;;;5068662;28;20155;-71
2022/04/08 08:43:29;;;;;;;11.52;2.10;;;;;;;;;;5067007;28;20088;-72
2022/04/08 08:45:56;;;;;;;9.88;2.00;;;;;;;;;;5062508;28;20041;-72
2022/04/08 08:48:30;;;;;;;9.60;1.95;;;;;;;;;;5046309;28;20530;-72
2022/04/08 08:50:59;;;;;;;14.30;2.38;;;;;;;;;;5047393;28;20144;-73
2022/04/08 08:53:28;;;;;;;16.65;2.85;;;;;;;;;;5065366;28;20053;-73
2022/04/08 08:55:54;;;;;;;14.73;2.40;;;;;;;;;;5061448;28;20049;-73
2022/04/08 08:58:21;;;;;;;12.50;1.70;;;;;;;;;;5067511;28;20084;-72
2022/04/08 09:00:47;;;;;;;16.15;2.05;;;;;;;;;;5067586;28;20057;-73
2022/04/08 09:03:14;;;;;;;9.68;1.83;;;;;;;;;;5059988;28;20132;-73
2022/04/08 09:05:44;;;;;;;12.57;2.25;;;;;;;;;;5047495;28;20129;-73
2022/04/08 09:08:15;;;;;;;8.48;1.95;;;;;;;;;;5047239;28;20092;-72
2022/04/08 09:10:46;;;;;;;13.20;1.90;;;;;;;;;;5047162;28;20058;-73
2022/04/08 09:13:15;;;;;;;8.23;1.50;;;;;;;;;;5051987;28;20628;-73
2022/04/08 09:15:51;;;;;;;8.02;1.77;;;;;;;;;;5067188;28;20133;-73
2022/04/08 09:18:17;;;;;;;22.38;2.30;;;;;;;;;;5069233;28;20084;-73
2022/04/08 09:20:45;;;;;;;8.30;1.30;;;;;;;;;;5070042;28;20053;-73
2022/04/08 09:23:12;;;;;;;10.20;1.42;;;;;;;;;;5070122;28;20061;-73
2022/04/08 09:25:39;;;;;;;5.60;1.27;;;;;;;;;;5070590;28;20135;-73
2022/04/08 09:28:09;;;;;;;5.55;1.20;;;;;;;;;;5070042;28;20499;-73
2022/04/08 09:30:35;;;;;;;8.10;1.38;;;;;;;;;;5070166;28;20049;-72
2022/04/08 09:33:19;;;;;;;7.13;1.58;;;;;;;;;;5054927;28;20085;-73
2022/04/08 09:35:46;;;;;;;6.30;1.17;;;;;;;;;;5050109;28;20057;-73
2022/04/08 09:38:17;;;;;;;4.60;1.20;;;;;;;;;;5064685;28;20176;-73
2022/04/08 09:40:43;;;;;;;5.57;1.55;;;;;;;;;;5073956;28;20051;-73
2022/04/08 09:43:09;;;;;;;7.68;1.65;;;;;;;;;;5069399;28;20625;-73
2022/04/08 09:45:38;;;;;;;9.68;1.30;;;;;;;;;;5068991;28;20103;-73
2022/04/08 09:48:05;;;;;;;;;;;;;;;;;;5070049;28;20532;-73
2022/04/08 09:50:32;;;;;;;8.18;1.42;;;;;;;;;;5068837;28;45765;-73
2022/04/08 09:52:58;;;;;;;9.13;1.58;;;;;;;;;;5070065;28;20060;-74
2022/04/08 09:55:25;;;;;;;7.63;1.25;;;;;;;;;;5069101;28;20057;-74
2022/04/08 09:57:56;;;;;;;6.75;1.40;;;;;;;;;;5069749;28;20060;-74
2022/04/08 10:00:22;;;;;;;16.30;1.75;;;;;;;;;;5069713;28;20080;-73
2022/04/08 10:02:51;;;;;;;7.32;1.25;;;;;;;;;;5070110;28;20171;-73
2022/04/08 10:05:17;;;;;;;8.57;1.45;;;;;;;;;;5070052;28;20053;-73
2022/04/08 10:07:45;;;;;;;11.82;1.88;;;;;;;;;;5069499;28;20057;-73
2022/04/08 10:10:30;;;;;;;7.22;1.65;;;;;;;;;;5069725;28;20064;-73
2022/04/08 10:13:04;;;;;;;10.85;1.73;;;;;;;;;;5048775;28;20084;-73
2022/04/08 10:15:30;;;;;;;10.60;2.00;;;;;;;;;;5049322;28;20057;-73
2022/04/08 10:17:58;;;;;;;9.30;1.50;;;;;;;;;;5049049;28;20085;-73
2022/04/08 10:20:26;;;;;;;11.68;2.03;;;;;;;;;;5049000;28;20527;-73
2022/04/08 10:23:02;;;;;;;9.63;1.80;;;;;;;;;;5049622;28;20141;-73
2022/04/08 10:25:34;;;;;;;5.97;1.92;;;;;;;;;;5047422;28;20136;-73
2022/04/08 10:28:01;;;;;;;7.82;1.30;;;;;;;;;;5054397;28;20140;-73
2022/04/08 10:30:27;;;;;;;6.68;1.63;;;;;;;;;;5068650;28;20445;-73
2022/04/08 10:33:00;;;;;;;5.90;1.33;;;;;;;;;;5069873;28;20600;-73
2022/04/08 10:35:27;;;;;;;5.40;1.23;;;;;;;;;;5050529;28;20055;-73
2022/04/08 10:37:54;;;;;;;5.60;1.40;;;;;;;;;;5069192;28;20140;-73
2022/04/08 10:40:20;;;;;;;6.10;1.35;;;;;;;;;;5069335;28;20053;-73
2022/04/08 10:42:57;;;;;;;6.88;1.42;;;;;;;;;;5069796;28;20049;-73
2022/04/08 10:45:24;;;;;;;12.35;2.38;;;;;;;;;;5068938;28;20132;-73
2022/04/08 10:47:50;;;;;;;9.30;1.83;;;;;;;;;;5069066;28;20151;-73
2022/04/08 10:50:23;;;;;;;6.80;1.25;;;;;;;;;;5068889;28;20067;-73
2022/04/08 10:52:50;;;;;;;10.00;1.85;;;;;;;;;;5068923;28;20087;-73
2022/04/08 10:55:16;;;;;;;6.88;1.52;;;;;;;;;;5068983;28;20434;-73
2022/04/08 10:57:43;;;;;;;9.80;1.73;;;;;;;;;;5069114;28;20140;-73
2022/04/08 11:00:11;;;;;;;8.88;1.33;;;;;;;;;;5068894;28;20598;-73
2022/04/08 11:02:38;;;;;;;11.30;1.70;;;;;;;;;;5069152;28;20143;-73
2022/04/08 11:05:05;;;;;;;7.75;1.42;;;;;;;;;;5062832;28;20060;-73
2022/04/08 11:07:32;;;;;;;9.82;1.85;;;;;;;;;;5062056;28;20044;-73
2022/04/08 11:09:59;;;;;;;6.70;1.70;;;;;;;;;;5067785;28;20594;-73
2022/04/08 11:12:30;;;;;;;7.30;1.77;;;;;;;;;;5048212;28;20077;-73
2022/04/08 11:14:58;;;;;;;11.75;1.63;;;;;;;;;;5047748;28;20153;-74
2022/04/08 11:17:34;;;;;;;9.63;1.80;;;;;;;;;;5086361;28;20056;-72
2022/04/08 11:20:02;;;;;;;10.80;1.70;;;;;;;;;;5086640;28;20147;-73
2022/04/08 11:22:37;;;;;;;8.95;1.60;;;;;;;;;;5068562;28;20597;-73
2022/04/08 11:25:04;;;;;;;8.75;1.80;;;;;;;;;;5069154;28;20168;-74
2022/04/08 11:27:31;;;;;;;7.18;1.58;;;;;;;;;;5068687;28;20613;-74
2022/04/08 11:29:57;;;;;;;7.07;1.48;;;;;;;;;;5062357;28;20131;-74
2022/04/08 11:32:28;;;;;;;6.78;1.25;;;;;;;;;;5086654;28;20079;-74
2022/04/08 11:34:55;;;;;;;7.05;1.40;;;;;;;;;;5083793;28;20059;-74
2022/04/08 11:37:25;;;;;;;8.25;1.70;;;;;;;;;;5079099;28;20059;-74
2022/04/08 11:39:58;;;;;;;11.75;1.77;;;;;;;;;;5067894;28;20055;-74
2022/04/08 11:42:25;;;;;;;7.30;1.40;;;;;;;;;;5068158;28;20168;-74
2022/04/08 11:44:52;;;;;;;5.15;1.13;;;;;;;;;;5076054;28;20098;-74
2022/04/08 11:47:28;;;;;;;9.93;1.67;;;;;;;;;;5086487;28;20052;-73
2022/04/08 11:50:04;;;;;;;9.25;1.77;;;;;;;;;;5057651;28;20144;-73
2022/04/08 11:52:30;;;;;;;7.88;1.30;;;;;;;;;;5070018;28;20072;-73
2022/04/08 11:55:08;;;;;;;6.30;1.55;;;;;;;;;;5076804;28;20048;-73
2022/04/08 11:57:44;;;;;;;8.60;1.77;;;;;;;;;;5076493;28;20126;-72
2022/04/08 12:00:10;;;;;;;6.47;1.27;;;;;;;;;;5081872;28;20056;-75
2022/04/08 12:02:37;;;;;;;7.85;1.25;;;;;;;;;;5067853;28;20057;-74
2022/04/08 12:05:03;;;;;;;7.32;1.30;;;;;;;;;;5078494;28;20143;-75
2022/04/08 12:07:49;;;;;;;7.63;1.23;;;;;;;;;;5072023;28;20147;-75
2022/04/08 12:10:17;;;;;;;6.88;1.30;;;;;;;;;;5086728;28;20586;-75
2022/04/08 12:12:44;;;;;;;7.15;1.42;;;;;;;;;;5068296;28;20152;-74
2022/04/08 12:15:11;;;;;;;8.02;2.38;;;;;;;;;;5077074;28;20143;-75
2022/04/08 12:17:41;;;;;;;10.52;1.88;;;;;;;;;;5077277;28;20144;-73
2022/04/08 12:20:13;;;;;;;7.05;1.50;;;;;;;;;;5085114;28;20658;-73
2022/04/08 12:22:40;;;;;;;6.07;1.60;;;;;;;;;;5080002;28;20565;-73
2022/04/08 12:25:07;;;;;;;5.53;1.58;;;;;;;;;;5067628;28;20951;-73
2022/04/08 12:27:34;;;;;;;14.90;2.38;;;;;;;;;;5069152;28;20503;-74
2022/04/08 12:30:25;;;;;;;8.33;1.50;;;;;;;;;;5071875;28;20060;-73
2022/04/08 12:32:51;;;;;;;7.45;1.40;;;;;;;;;;5086596;28;20055;-73
2022/04/08 12:35:18;;;;;;;8.32;1.98;;;;;;;;;;5087276;28;20059;-73
2022/04/08 12:37:45;;;;;;;6.88;1.77;;;;;;;;;;5081993;28;20512;-73
2022/04/08 12:40:11;;;;;;;12.48;1.70;;;;;;;;;;5087261;28;20143;-73
2022/04/08 12:42:38;;;;;;;7.13;1.67;;;;;;;;;;5086592;28;20057;-73
2022/04/08 12:45:05;;;;;;;6.38;1.40;;;;;;;;;;5069538;28;20622;-73
2022/04/08 12:47:32;;;;;;;10.50;2.13;;;;;;;;;;5067820;28;20073;-73
2022/04/08 12:50:02;;;;;;;8.80;1.70;;;;;;;;;;5066711;28;20564;-73
2022/04/08 12:52:29;;;;;;;6.07;1.50;;;;;;;;;;5067137;28;20049;-73
2022/04/08 12:54:55;;;;;;;9.07;1.60;;;;;;;;;;5071615;28;20538;-73
2022/04/08 12:57:21;;;;;;;7.28;1.70;;;;;;;;;;5071899;28;20057;-73
2022/04/08 13:00:11;;;;;;;8.20;1.70;;;;;;;;;;5070110;28;20049;-73
2022/04/08 13:02:41;;;;;;;7.63;1.80;;;;;;;;;;5070713;28;20083;-73
2022/04/08 13:05:08;;;;;;;8.20;1.90;;;;;;;;;;5069874;28;20064;-72
2022/04/08 13:07:34;;;;;;;7.60;1.75;;;;;;;;;;5070613;28;20602;-70
2022/04/08 13:10:02;;;;;;;7.50;1.50;;;;;;;;;;5053068;28;20424;-70
2022/04/08 13:12:28;;;;;;;9.37;1.60;;;;;;;;;;5050061;28;20085;-70
2022/04/08 13:14:55;;;;;;;15.07;2.20;;;;;;;;;;5069936;28;20286;-70
2022/04/08 13:17:21;;;;;;;8.13;1.80;;;;;;;;;;5069531;28;20080;-71
2022/04/08 13:19:47;;;;;;;10.32;1.88;;;;;;;;;;5070389;28;20076;-71
2022/04/08 13:22:14;;;;;;;6.82;1.75;;;;;;;;;;5070371;28;20057;-71
2022/04/08 13:24:41;;;;;;;10.23;1.90;;;;;;;;;;5069921;28;20063;-71
2022/04/08 13:27:07;;;;;;;8.40;1.75;;;;;;;;;;5069771;28;20140;-71
2022/04/08 13:29:33;;;;;;;10.82;1.40;;;;;;;;;;5070412;28;20056;-71
2022/04/08 13:31:59;;;;;;;10.80;1.92;;;;;;;;;;5070227;28;20905;-72
2022/04/08 13:34:26;;;;;;;5.55;1.33;;;;;;;;;;5070071;28;20503;-71
2022/04/08 13:37:03;;;;;;;11.45;1.50;;;;;;;;;;5070425;28;20061;-71
2022/04/08 13:39:29;;;;;;;5.88;1.40;;;;;;;;;;5070672;28;20045;-71
2022/04/08 13:41:55;;;;;;;13.05;1.85;;;;;;;;;;5069346;28;20571;-71
2022/04/08 13:44:22;;;;;;;11.32;1.70;;;;;;;;;;5069426;28;20136;-71
2022/04/08 13:46:48;;;;;;;5.60;1.30;;;;;;;;;;5070027;28;20045;-71
2022/04/08 13:49:14;;;;;;;10.38;1.40;;;;;;;;;;5069428;28;20052;-71
2022/04/08 13:51:41;;;;;;;7.32;1.30;;;;;;;;;;5051599;28;20178;-71
2022/04/08 13:54:07;;;;;;;9.23;1.42;;;;;;;;;;5084741;28;20073;-71
2022/04/08 13:56:33;;;;;;;6.25;1.98;;;;;;;;;;5069841;28;20045;-70
2022/04/08 13:59:00;;;;;;;7.25;1.40;;;;;;;;;;5059371;28;20072;-70
2022/04/08 14:01:26;;;;;;;7.32;1.48;;;;;;;;;;5085115;28;20063;-71
2022/04/08 14:03:53;;;;;;;6.63;1.05;;;;;;;;;;5083429;28;20545;-72
2022/04/08 14:06:19;;;;;;;7.57;1.38;;;;;;;;;;5074648;28;20144;-71
2022/04/08 14:08:47;;;;;;;9.23;1.67;;;;;;;;;;5070312;28;20529;-71
2022/04/08 14:11:14;;;;;;;7.88;1.20;;;;;;;;;;5088411;28;20053;-70
2022/04/08 14:13:40;;;;;;;5.20;1.35;;;;;;;;;;5074641;28;20057;-70
2022/04/08 14:16:07;;;;;;;6.78;1.40;;;;;;;;;;5080760;28;20462;-70
2022/04/08 14:18:33;;;;;;;5.93;1.27;;;;;;;;;;5089051;28;20052;-71
2022/04/08 14:21:00;;;;;;;4.93;1.30;;;;;;;;;;5088848;28;20059;-72
2022/04/08 14:23:27;;;;;;;5.97;1.45;;;;;;;;;;5088825;28;20143;-72
2022/04/08 14:25:53;;;;;;;6.00;1.42;;;;;;;;;;5088969;28;20856;-72
2022/04/08 14:28:22;;;;;;;5.18;1.60;;;;;;;;;;5088097;28;20056;-72
2022/04/08 14:30:48;;;;;;;11.73;2.13;;;;;;;;;;5089269;28;20087;-72
2022/04/08 14:33:14;;;;;;;14.82;4.00;;;;;;;;;;5089124;28;20503;-72
2022/04/08 14:35:41;;;;;;;12.35;3.00;;;;;;;;;;5089704;28;20135;-72
2022/04/08 14:38:07;;;;;;;22.55;5.68;;;;;;;;;;5089389;28;20863;-72